Gorman, California
Current Conditions -  °F | °C
As of 4:26 PM on Saturday 20 Dec 2014 (Local Time) from KSDB Reporting Station
Light Rain Light Rain  
Wind Chill: 39°   Ceiling: 300
Heat Index: 48°   Visibility: 0.5mi
Dew Point: 44°   Wind: 35mph
Humidity: 86%   Direction: 330°NNW
Pressure: 30.17"   Gusts: 40mph
Location:  34.75°N, 118.73°W
Report Text: KSDB 210026Z AUTO 33030G35KT 1/2SM -RA FG BKN003 OVC014 09/07 A3017 RMK AO2 PK WND 32036/2352 VIS M1/4V2 1/2 RAB01E22B23 P0000 T00890067
Loading
Personal Weather Stations






























Interactive Weather Map New forecast layout! Learn more

10-Day Weather Forecast

Advertisements
Track Severe Weather on mobile